sensor_id;sensor_type;location;lat;lon;timestamp;P1;durP1;ratioP1;P2;durP2;ratioP2
17953;SDS011;9102;53.548;9.926;2023-06-14T00:00:50;6.93;;;2.67;;
17953;SDS011;9102;53.548;9.926;2023-06-14T00:03:18;4.75;;;2.40;;
17953;SDS011;9102;53.548;9.926;2023-06-14T00:05:47;5.30;;;2.25;;
17953;SDS011;9102;53.548;9.926;2023-06-14T00:08:14;3.63;;;2.30;;
17953;SDS011;9102;53.548;9.926;2023-06-14T00:10:41;4.68;;;2.20;;
17953;SDS011;9102;53.548;9.926;2023-06-14T00:13:08;10.50;;;2.30;;
17953;SDS011;9102;53.548;9.926;2023-06-14T00:15:37;3.97;;;2.53;;
17953;SDS011;9102;53.548;9.926;2023-06-14T00:18:04;4.22;;;2.08;;
17953;SDS011;9102;53.548;9.926;2023-06-14T00:20:32;5.75;;;2.63;;
17953;SDS011;9102;53.548;9.926;2023-06-14T00:22:59;6.63;;;2.53;;
17953;SDS011;9102;53.548;9.926;2023-06-14T00:25:26;4.93;;;2.28;;
17953;SDS011;9102;53.548;9.926;2023-06-14T00:27:53;4.95;;;2.30;;
17953;SDS011;9102;53.548;9.926;2023-06-14T00:30:20;6.13;;;2.70;;
17953;SDS011;9102;53.548;9.926;2023-06-14T00:32:49;4.13;;;2.42;;
17953;SDS011;9102;53.548;9.926;2023-06-14T00:35:16;5.15;;;2.13;;
17953;SDS011;9102;53.548;9.926;2023-06-14T00:37:43;7.47;;;2.80;;
17953;SDS011;9102;53.548;9.926;2023-06-14T00:40:10;6.25;;;2.53;;
17953;SDS011;9102;53.548;9.926;2023-06-14T00:42:37;3.55;;;2.38;;
17953;SDS011;9102;53.548;9.926;2023-06-14T00:45:04;4.15;;;2.53;;
17953;SDS011;9102;53.548;9.926;2023-06-14T00:47:31;6.65;;;2.40;;
17953;SDS011;9102;53.548;9.926;2023-06-14T00:49:59;4.45;;;2.65;;
17953;SDS011;9102;53.548;9.926;2023-06-14T00:52:27;4.50;;;2.67;;
17953;SDS011;9102;53.548;9.926;2023-06-14T00:54:54;7.18;;;2.55;;
17953;SDS011;9102;53.548;9.926;2023-06-14T00:57:21;4.63;;;2.35;;
17953;SDS011;9102;53.548;9.926;2023-06-14T00:59:49;5.38;;;2.92;;
17953;SDS011;9102;53.548;9.926;2023-06-14T01:02:16;7.78;;;2.30;;
17953;SDS011;9102;53.548;9.926;2023-06-14T01:04:45;5.85;;;2.55;;
17953;SDS011;9102;53.548;9.926;2023-06-14T01:07:18;4.72;;;2.42;;
17953;SDS011;9102;53.548;9.926;2023-06-14T01:09:55;5.50;;;2.40;;
17953;SDS011;9102;53.548;9.926;2023-06-14T01:12:34;5.43;;;2.60;;
17953;SDS011;9102;53.548;9.926;2023-06-14T01:15:05;4.95;;;2.38;;
17953;SDS011;9102;53.548;9.926;2023-06-14T01:17:34;5.15;;;2.28;;
17953;SDS011;9102;53.548;9.926;2023-06-14T01:20:07;4.88;;;2.70;;
17953;SDS011;9102;53.548;9.926;2023-06-14T01:25:14;5.40;;;2.45;;
17953;SDS011;9102;53.548;9.926;2023-06-14T01:27:41;7.10;;;2.67;;
17953;SDS011;9102;53.548;9.926;2023-06-14T01:30:09;5.07;;;2.38;;
17953;SDS011;9102;53.548;9.926;2023-06-14T01:32:37;4.60;;;2.67;;
17953;SDS011;9102;53.548;9.926;2023-06-14T01:35:04;5.07;;;2.85;;
17953;SDS011;9102;53.548;9.926;2023-06-14T01:37:32;4.78;;;2.28;;
17953;SDS011;9102;53.548;9.926;2023-06-14T01:40:01;5.82;;;2.60;;
17953;SDS011;9102;53.548;9.926;2023-06-14T01:42:28;3.45;;;2.33;;
17953;SDS011;9102;53.548;9.926;2023-06-14T01:44:57;6.25;;;2.40;;
17953;SDS011;9102;53.548;9.926;2023-06-14T01:47:25;5.30;;;2.55;;
17953;SDS011;9102;53.548;9.926;2023-06-14T01:49:52;4.38;;;2.70;;
17953;SDS011;9102;53.548;9.926;2023-06-14T01:52:18;6.65;;;2.88;;
17953;SDS011;9102;53.548;9.926;2023-06-14T01:54:47;9.13;;;2.70;;
17953;SDS011;9102;53.548;9.926;2023-06-14T01:57:16;6.20;;;2.80;;
17953;SDS011;9102;53.548;9.926;2023-06-14T01:59:43;6.15;;;2.53;;
17953;SDS011;9102;53.548;9.926;2023-06-14T02:02:13;5.97;;;2.83;;
17953;SDS011;9102;53.548;9.926;2023-06-14T02:04:40;6.30;;;2.70;;
17953;SDS011;9102;53.548;9.926;2023-06-14T02:07:07;5.97;;;2.88;;
17953;SDS011;9102;53.548;9.926;2023-06-14T02:09:34;5.22;;;2.75;;
17953;SDS011;9102;53.548;9.926;2023-06-14T02:12:01;5.30;;;2.50;;
17953;SDS011;9102;53.548;9.926;2023-06-14T02:14:29;5.38;;;3.08;;
17953;SDS011;9102;53.548;9.926;2023-06-14T02:16:56;4.57;;;2.60;;
17953;SDS011;9102;53.548;9.926;2023-06-14T02:19:23;5.68;;;2.85;;
17953;SDS011;9102;53.548;9.926;2023-06-14T02:21:50;8.75;;;2.50;;
17953;SDS011;9102;53.548;9.926;2023-06-14T02:24:17;6.97;;;3.22;;
17953;SDS011;9102;53.548;9.926;2023-06-14T02:26:43;7.15;;;2.75;;
17953;SDS011;9102;53.548;9.926;2023-06-14T02:29:10;7.13;;;2.83;;
17953;SDS011;9102;53.548;9.926;2023-06-14T02:31:41;8.43;;;3.30;;
17953;SDS011;9102;53.548;9.926;2023-06-14T02:34:08;6.18;;;3.00;;
17953;SDS011;9102;53.548;9.926;2023-06-14T02:36:34;6.07;;;3.45;;
17953;SDS011;9102;53.548;9.926;2023-06-14T02:39:06;6.93;;;2.90;;
17953;SDS011;9102;53.548;9.926;2023-06-14T02:41:34;7.22;;;3.10;;
17953;SDS011;9102;53.548;9.926;2023-06-14T02:44:01;8.73;;;2.88;;
17953;SDS011;9102;53.548;9.926;2023-06-14T02:46:28;6.82;;;3.00;;
17953;SDS011;9102;53.548;9.926;2023-06-14T02:48:56;8.02;;;3.10;;
17953;SDS011;9102;53.548;9.926;2023-06-14T02:51:23;9.85;;;3.15;;
17953;SDS011;9102;53.548;9.926;2023-06-14T02:53:50;5.70;;;2.88;;
17953;SDS011;9102;53.548;9.926;2023-06-14T02:56:19;6.63;;;2.72;;
17953;SDS011;9102;53.548;9.926;2023-06-14T02:58:47;7.95;;;2.85;;
17953;SDS011;9102;53.548;9.926;2023-06-14T03:01:15;6.00;;;2.92;;
17953;SDS011;9102;53.548;9.926;2023-06-14T03:03:43;10.57;;;2.95;;
17953;SDS011;9102;53.548;9.926;2023-06-14T03:06:11;6.10;;;2.85;;
17953;SDS011;9102;53.548;9.926;2023-06-14T03:08:39;5.40;;;2.75;;
17953;SDS011;9102;53.548;9.926;2023-06-14T03:11:06;8.73;;;3.20;;
17953;SDS011;9102;53.548;9.926;2023-06-14T03:13:33;8.65;;;2.97;;
17953;SDS011;9102;53.548;9.926;2023-06-14T03:16:00;6.07;;;2.80;;
17953;SDS011;9102;53.548;9.926;2023-06-14T03:18:28;5.38;;;3.22;;
17953;SDS011;9102;53.548;9.926;2023-06-14T03:20:55;8.68;;;3.15;;
17953;SDS011;9102;53.548;9.926;2023-06-14T03:23:24;7.68;;;3.10;;
17953;SDS011;9102;53.548;9.926;2023-06-14T03:25:51;5.45;;;3.20;;
17953;SDS011;9102;53.548;9.926;2023-06-14T03:28:18;5.90;;;3.05;;
17953;SDS011;9102;53.548;9.926;2023-06-14T03:30:45;10.45;;;3.10;;
17953;SDS011;9102;53.548;9.926;2023-06-14T03:33:12;6.97;;;3.13;;
17953;SDS011;9102;53.548;9.926;2023-06-14T03:35:40;6.68;;;3.05;;
17953;SDS011;9102;53.548;9.926;2023-06-14T03:38:07;6.75;;;3.70;;
17953;SDS011;9102;53.548;9.926;2023-06-14T03:40:35;7.00;;;3.90;;
17953;SDS011;9102;53.548;9.926;2023-06-14T03:43:02;6.75;;;3.60;;
17953;SDS011;9102;53.548;9.926;2023-06-14T03:45:29;7.03;;;2.92;;
17953;SDS011;9102;53.548;9.926;2023-06-14T03:47:55;7.80;;;3.58;;
17953;SDS011;9102;53.548;9.926;2023-06-14T03:50:23;6.28;;;3.60;;
17953;SDS011;9102;53.548;9.926;2023-06-14T03:52:50;7.40;;;3.13;;
17953;SDS011;9102;53.548;9.926;2023-06-14T03:55:17;7.45;;;3.60;;
17953;SDS011;9102;53.548;9.926;2023-06-14T03:57:45;5.85;;;3.35;;
17953;SDS011;9102;53.548;9.926;2023-06-14T04:00:12;4.93;;;2.95;;
17953;SDS011;9102;53.548;9.926;2023-06-14T04:02:40;6.05;;;3.08;;
17953;SDS011;9102;53.548;9.926;2023-06-14T04:05:09;8.57;;;3.17;;
17953;SDS011;9102;53.548;9.926;2023-06-14T04:07:36;7.15;;;3.60;;
17953;SDS011;9102;53.548;9.926;2023-06-14T04:10:05;9.60;;;3.60;;
17953;SDS011;9102;53.548;9.926;2023-06-14T04:12:33;5.50;;;3.13;;
17953;SDS011;9102;53.548;9.926;2023-06-14T04:15:01;11.55;;;3.72;;
17953;SDS011;9102;53.548;9.926;2023-06-14T04:17:30;11.35;;;4.85;;
17953;SDS011;9102;53.548;9.926;2023-06-14T04:19:58;7.80;;;3.38;;
17953;SDS011;9102;53.548;9.926;2023-06-14T04:22:25;8.75;;;3.50;;
17953;SDS011;9102;53.548;9.926;2023-06-14T04:24:53;7.38;;;3.15;;
17953;SDS011;9102;53.548;9.926;2023-06-14T04:27:20;7.82;;;3.42;;
17953;SDS011;9102;53.548;9.926;2023-06-14T04:29:50;7.75;;;3.88;;
17953;SDS011;9102;53.548;9.926;2023-06-14T04:32:22;6.80;;;3.38;;
17953;SDS011;9102;53.548;9.926;2023-06-14T04:34:50;8.32;;;3.33;;
17953;SDS011;9102;53.548;9.926;2023-06-14T04:37:18;11.80;;;3.22;;
17953;SDS011;9102;53.548;9.926;2023-06-14T04:39:46;10.98;;;3.30;;
17953;SDS011;9102;53.548;9.926;2023-06-14T04:42:13;4.82;;;3.10;;
17953;SDS011;9102;53.548;9.926;2023-06-14T04:44:41;9.85;;;3.55;;
17953;SDS011;9102;53.548;9.926;2023-06-14T04:47:08;8.50;;;3.10;;
17953;SDS011;9102;53.548;9.926;2023-06-14T04:49:37;10.27;;;3.40;;
17953;SDS011;9102;53.548;9.926;2023-06-14T04:52:05;8.32;;;3.28;;
17953;SDS011;9102;53.548;9.926;2023-06-14T04:54:32;10.00;;;4.57;;
17953;SDS011;9102;53.548;9.926;2023-06-14T04:57:02;6.90;;;3.97;;
17953;SDS011;9102;53.548;9.926;2023-06-14T04:59:30;5.50;;;3.05;;
17953;SDS011;9102;53.548;9.926;2023-06-14T05:01:59;6.03;;;3.10;;
17953;SDS011;9102;53.548;9.926;2023-06-14T05:04:27;5.53;;;3.30;;
17953;SDS011;9102;53.548;9.926;2023-06-14T05:06:55;8.30;;;3.25;;
17953;SDS011;9102;53.548;9.926;2023-06-14T05:09:22;16.65;;;4.28;;
17953;SDS011;9102;53.548;9.926;2023-06-14T05:11:49;6.65;;;3.13;;
17953;SDS011;9102;53.548;9.926;2023-06-14T05:14:16;8.65;;;3.97;;
17953;SDS011;9102;53.548;9.926;2023-06-14T05:16:43;7.43;;;3.40;;
17953;SDS011;9102;53.548;9.926;2023-06-14T05:19:10;8.18;;;3.20;;
17953;SDS011;9102;53.548;9.926;2023-06-14T05:21:37;7.07;;;3.25;;
17953;SDS011;9102;53.548;9.926;2023-06-14T05:24:06;6.95;;;3.55;;
17953;SDS011;9102;53.548;9.926;2023-06-14T05:26:34;5.45;;;3.13;;
17953;SDS011;9102;53.548;9.926;2023-06-14T05:29:01;6.82;;;3.63;;
17953;SDS011;9102;53.548;9.926;2023-06-14T05:31:28;6.55;;;3.25;;
17953;SDS011;9102;53.548;9.926;2023-06-14T05:33:56;12.98;;;3.28;;
17953;SDS011;9102;53.548;9.926;2023-06-14T05:36:23;10.90;;;3.05;;
17953;SDS011;9102;53.548;9.926;2023-06-14T05:38:50;6.63;;;3.03;;
17953;SDS011;9102;53.548;9.926;2023-06-14T05:41:23;7.95;;;2.63;;
17953;SDS011;9102;53.548;9.926;2023-06-14T05:43:51;10.30;;;4.07;;
17953;SDS011;9102;53.548;9.926;2023-06-14T05:46:18;8.27;;;3.40;;
17953;SDS011;9102;53.548;9.926;2023-06-14T05:48:47;10.65;;;3.47;;
17953;SDS011;9102;53.548;9.926;2023-06-14T05:51:13;5.85;;;2.97;;
17953;SDS011;9102;53.548;9.926;2023-06-14T05:53:43;10.35;;;4.07;;
17953;SDS011;9102;53.548;9.926;2023-06-14T05:56:10;8.82;;;3.35;;
17953;SDS011;9102;53.548;9.926;2023-06-14T05:58:38;8.00;;;3.20;;
17953;SDS011;9102;53.548;9.926;2023-06-14T06:01:05;7.57;;;3.38;;
17953;SDS011;9102;53.548;9.926;2023-06-14T06:03:32;6.70;;;3.65;;
17953;SDS011;9102;53.548;9.926;2023-06-14T06:05:59;9.60;;;3.40;;
17953;SDS011;9102;53.548;9.926;2023-06-14T06:08:28;7.05;;;3.03;;
17953;SDS011;9102;53.548;9.926;2023-06-14T06:10:55;8.18;;;3.15;;
17953;SDS011;9102;53.548;9.926;2023-06-14T06:13:21;7.32;;;3.13;;
17953;SDS011;9102;53.548;9.926;2023-06-14T06:15:50;7.15;;;3.55;;
17953;SDS011;9102;53.548;9.926;2023-06-14T06:18:17;15.35;;;3.80;;
17953;SDS011;9102;53.548;9.926;2023-06-14T06:20:43;8.13;;;3.25;;
17953;SDS011;9102;53.548;9.926;2023-06-14T06:23:12;6.63;;;3.35;;
17953;SDS011;9102;53.548;9.926;2023-06-14T06:25:39;10.82;;;3.30;;
17953;SDS011;9102;53.548;9.926;2023-06-14T06:28:06;12.13;;;2.95;;
17953;SDS011;9102;53.548;9.926;2023-06-14T06:30:33;7.70;;;3.30;;
17953;SDS011;9102;53.548;9.926;2023-06-14T06:33:02;10.02;;;3.13;;
17953;SDS011;9102;53.548;9.926;2023-06-14T06:35:29;6.63;;;3.20;;
17953;SDS011;9102;53.548;9.926;2023-06-14T06:37:58;10.02;;;3.63;;
17953;SDS011;9102;53.548;9.926;2023-06-14T06:40:25;13.32;;;3.40;;
17953;SDS011;9102;53.548;9.926;2023-06-14T06:42:52;9.98;;;3.08;;
17953;SDS011;9102;53.548;9.926;2023-06-14T06:45:19;6.32;;;2.70;;
17953;SDS011;9102;53.548;9.926;2023-06-14T06:47:46;8.32;;;2.63;;
17953;SDS011;9102;53.548;9.926;2023-06-14T06:50:14;6.70;;;2.88;;
17953;SDS011;9102;53.548;9.926;2023-06-14T06:52:41;5.88;;;2.42;;
17953;SDS011;9102;53.548;9.926;2023-06-14T06:55:08;4.03;;;2.17;;
17953;SDS011;9102;53.548;9.926;2023-06-14T06:57:36;7.82;;;2.60;;
17953;SDS011;9102;53.548;9.926;2023-06-14T07:00:03;7.20;;;2.28;;
17953;SDS011;9102;53.548;9.926;2023-06-14T07:02:33;5.35;;;2.30;;
17953;SDS011;9102;53.548;9.926;2023-06-14T07:05:00;7.13;;;2.60;;
17953;SDS011;9102;53.548;9.926;2023-06-14T07:07:28;6.15;;;2.42;;
17953;SDS011;9102;53.548;9.926;2023-06-14T07:09:54;6.05;;;2.38;;
17953;SDS011;9102;53.548;9.926;2023-06-14T07:12:23;4.35;;;2.00;;
17953;SDS011;9102;53.548;9.926;2023-06-14T07:14:49;5.95;;;2.30;;
17953;SDS011;9102;53.548;9.926;2023-06-14T07:17:16;6.38;;;2.00;;
17953;SDS011;9102;53.548;9.926;2023-06-14T07:19:43;3.53;;;1.80;;
17953;SDS011;9102;53.548;9.926;2023-06-14T07:22:10;4.25;;;2.20;;
17953;SDS011;9102;53.548;9.926;2023-06-14T07:24:38;3.63;;;2.17;;
17953;SDS011;9102;53.548;9.926;2023-06-14T07:27:05;4.43;;;2.05;;
17953;SDS011;9102;53.548;9.926;2023-06-14T07:29:32;6.78;;;2.47;;
17953;SDS011;9102;53.548;9.926;2023-06-14T07:32:02;5.65;;;2.33;;
17953;SDS011;9102;53.548;9.926;2023-06-14T07:34:30;3.30;;;2.10;;
17953;SDS011;9102;53.548;9.926;2023-06-14T07:36:56;3.90;;;2.30;;
17953;SDS011;9102;53.548;9.926;2023-06-14T07:39:23;4.63;;;2.22;;
17953;SDS011;9102;53.548;9.926;2023-06-14T07:41:51;8.48;;;2.35;;
17953;SDS011;9102;53.548;9.926;2023-06-14T07:44:18;5.22;;;2.10;;
17953;SDS011;9102;53.548;9.926;2023-06-14T07:46:45;3.17;;;2.10;;
17953;SDS011;9102;53.548;9.926;2023-06-14T07:49:14;5.18;;;1.80;;
17953;SDS011;9102;53.548;9.926;2023-06-14T07:51:41;7.30;;;2.55;;
17953;SDS011;9102;53.548;9.926;2023-06-14T07:54:09;8.32;;;2.28;;
17953;SDS011;9102;53.548;9.926;2023-06-14T07:56:36;7.18;;;2.50;;
17953;SDS011;9102;53.548;9.926;2023-06-14T07:59:04;6.63;;;1.88;;
17953;SDS011;9102;53.548;9.926;2023-06-14T08:01:32;5.28;;;2.10;;
17953;SDS011;9102;53.548;9.926;2023-06-14T08:03:59;6.35;;;2.10;;
17953;SDS011;9102;53.548;9.926;2023-06-14T08:06:26;5.93;;;2.22;;
17953;SDS011;9102;53.548;9.926;2023-06-14T08:08:53;6.43;;;2.33;;
17953;SDS011;9102;53.548;9.926;2023-06-14T08:11:20;7.60;;;2.55;;
17953;SDS011;9102;53.548;9.926;2023-06-14T08:13:49;5.40;;;2.30;;
17953;SDS011;9102;53.548;9.926;2023-06-14T08:16:17;5.07;;;2.35;;
17953;SDS011;9102;53.548;9.926;2023-06-14T08:18:44;5.63;;;2.20;;
17953;SDS011;9102;53.548;9.926;2023-06-14T08:21:11;12.98;;;3.38;;
17953;SDS011;9102;53.548;9.926;2023-06-14T08:23:39;22.70;;;3.10;;
17953;SDS011;9102;53.548;9.926;2023-06-14T08:26:07;7.93;;;2.45;;
17953;SDS011;9102;53.548;9.926;2023-06-14T08:28:34;6.20;;;2.45;;
17953;SDS011;9102;53.548;9.926;2023-06-14T08:31:01;5.18;;;2.47;;
17953;SDS011;9102;53.548;9.926;2023-06-14T08:33:29;4.15;;;2.20;;
17953;SDS011;9102;53.548;9.926;2023-06-14T08:35:58;3.55;;;2.10;;
17953;SDS011;9102;53.548;9.926;2023-06-14T08:38:25;11.85;;;2.30;;
17953;SDS011;9102;53.548;9.926;2023-06-14T08:40:52;4.90;;;2.10;;
17953;SDS011;9102;53.548;9.926;2023-06-14T08:43:24;5.82;;;2.22;;
17953;SDS011;9102;53.548;9.926;2023-06-14T08:45:51;7.20;;;2.50;;
17953;SDS011;9102;53.548;9.926;2023-06-14T08:48:24;5.05;;;2.53;;
17953;SDS011;9102;53.548;9.926;2023-06-14T08:50:54;9.88;;;2.50;;
17953;SDS011;9102;53.548;9.926;2023-06-14T08:53:27;10.48;;;2.45;;
17953;SDS011;9102;53.548;9.926;2023-06-14T08:55:56;4.97;;;2.60;;
17953;SDS011;9102;53.548;9.926;2023-06-14T08:58:25;8.50;;;2.88;;
17953;SDS011;9102;53.548;9.926;2023-06-14T09:00:54;7.07;;;2.25;;
17953;SDS011;9102;53.548;9.926;2023-06-14T09:03:21;5.88;;;2.40;;
17953;SDS011;9102;53.548;9.926;2023-06-14T09:05:56;3.85;;;2.15;;
17953;SDS011;9102;53.548;9.926;2023-06-14T09:08:26;10.57;;;2.25;;
17953;SDS011;9102;53.548;9.926;2023-06-14T09:10:55;8.68;;;2.33;;
17953;SDS011;9102;53.548;9.926;2023-06-14T09:13:22;8.38;;;2.70;;
17953;SDS011;9102;53.548;9.926;2023-06-14T09:15:49;4.25;;;2.53;;
17953;SDS011;9102;53.548;9.926;2023-06-14T09:18:16;11.25;;;2.90;;
17953;SDS011;9102;53.548;9.926;2023-06-14T09:20:45;8.57;;;3.53;;
17953;SDS011;9102;53.548;9.926;2023-06-14T09:23:14;5.10;;;2.35;;
17953;SDS011;9102;53.548;9.926;2023-06-14T09:25:47;4.80;;;2.50;;
17953;SDS011;9102;53.548;9.926;2023-06-14T09:28:14;5.95;;;2.47;;
17953;SDS011;9102;53.548;9.926;2023-06-14T09:30:41;4.88;;;2.45;;
17953;SDS011;9102;53.548;9.926;2023-06-14T09:33:07;5.72;;;2.65;;
17953;SDS011;9102;53.548;9.926;2023-06-14T09:35:35;4.07;;;2.20;;
17953;SDS011;9102;53.548;9.926;2023-06-14T09:38:02;5.82;;;2.42;;
17953;SDS011;9102;53.548;9.926;2023-06-14T09:40:32;3.83;;;2.30;;
17953;SDS011;9102;53.548;9.926;2023-06-14T09:43:00;6.95;;;2.60;;
17953;SDS011;9102;53.548;9.926;2023-06-14T09:45:30;6.38;;;2.35;;
17953;SDS011;9102;53.548;9.926;2023-06-14T09:47:57;5.68;;;2.22;;
17953;SDS011;9102;53.548;9.926;2023-06-14T09:50:24;7.15;;;2.10;;
17953;SDS011;9102;53.548;9.926;2023-06-14T09:52:52;4.72;;;2.30;;
17953;SDS011;9102;53.548;9.926;2023-06-14T09:55:21;6.72;;;2.70;;
17953;SDS011;9102;53.548;9.926;2023-06-14T09:57:51;6.30;;;2.17;;
17953;SDS011;9102;53.548;9.926;2023-06-14T10:00:21;7.30;;;2.38;;
17953;SDS011;9102;53.548;9.926;2023-06-14T10:02:49;4.97;;;2.30;;
17953;SDS011;9102;53.548;9.926;2023-06-14T10:05:21;3.92;;;2.22;;
17953;SDS011;9102;53.548;9.926;2023-06-14T10:07:51;4.13;;;2.95;;
17953;SDS011;9102;53.548;9.926;2023-06-14T10:10:21;7.68;;;2.90;;
17953;SDS011;9102;53.548;9.926;2023-06-14T10:12:48;8.20;;;2.60;;
17953;SDS011;9102;53.548;9.926;2023-06-14T10:15:18;3.38;;;2.28;;
17953;SDS011;9102;53.548;9.926;2023-06-14T10:17:50;8.93;;;3.40;;
17953;SDS011;9102;53.548;9.926;2023-06-14T10:20:28;6.78;;;2.35;;
17953;SDS011;9102;53.548;9.926;2023-06-14T10:23:00;4.97;;;2.40;;
17953;SDS011;9102;53.548;9.926;2023-06-14T10:25:32;5.40;;;2.72;;
17953;SDS011;9102;53.548;9.926;2023-06-14T10:28:03;9.68;;;2.17;;
17953;SDS011;9102;53.548;9.926;2023-06-14T10:31:04;7.05;;;2.75;;
17953;SDS011;9102;53.548;9.926;2023-06-14T10:33:32;5.65;;;2.80;;
17953;SDS011;9102;53.548;9.926;2023-06-14T10:38:59;4.88;;;2.53;;
17953;SDS011;9102;53.548;9.926;2023-06-14T10:41:27;5.82;;;2.70;;
17953;SDS011;9102;53.548;9.926;2023-06-14T10:44:10;3.33;;;2.20;;
17953;SDS011;9102;53.548;9.926;2023-06-14T10:46:57;5.72;;;2.97;;
17953;SDS011;9102;53.548;9.926;2023-06-14T10:49:36;5.82;;;2.35;;
17953;SDS011;9102;53.548;9.926;2023-06-14T10:52:07;6.15;;;2.53;;
17953;SDS011;9102;53.548;9.926;2023-06-14T10:55:04;9.25;;;3.15;;
17953;SDS011;9102;53.548;9.926;2023-06-14T10:57:36;3.85;;;2.35;;
17953;SDS011;9102;53.548;9.926;2023-06-14T11:00:05;8.15;;;2.38;;
17953;SDS011;9102;53.548;9.926;2023-06-14T11:05:57;7.45;;;2.55;;
17953;SDS011;9102;53.548;9.926;2023-06-14T11:08:46;4.35;;;2.55;;
17953;SDS011;9102;53.548;9.926;2023-06-14T11:11:44;5.10;;;2.42;;
17953;SDS011;9102;53.548;9.926;2023-06-14T11:14:13;6.20;;;2.63;;
17953;SDS011;9102;53.548;9.926;2023-06-14T11:16:40;4.88;;;2.38;;
17953;SDS011;9102;53.548;9.926;2023-06-14T11:19:08;5.47;;;2.58;;
17953;SDS011;9102;53.548;9.926;2023-06-14T11:21:39;5.25;;;2.47;;
17953;SDS011;9102;53.548;9.926;2023-06-14T11:24:09;7.63;;;2.40;;
17953;SDS011;9102;53.548;9.926;2023-06-14T11:26:37;6.00;;;2.65;;
17953;SDS011;9102;53.548;9.926;2023-06-14T11:29:04;4.53;;;2.78;;
17953;SDS011;9102;53.548;9.926;2023-06-14T11:31:31;6.82;;;2.58;;
17953;SDS011;9102;53.548;9.926;2023-06-14T11:33:58;6.93;;;2.80;;
17953;SDS011;9102;53.548;9.926;2023-06-14T11:36:27;8.68;;;2.40;;
17953;SDS011;9102;53.548;9.926;2023-06-14T11:38:59;5.05;;;2.75;;
17953;SDS011;9102;53.548;9.926;2023-06-14T11:41:31;5.28;;;2.58;;
17953;SDS011;9102;53.548;9.926;2023-06-14T11:43:59;6.18;;;2.78;;
17953;SDS011;9102;53.548;9.926;2023-06-14T11:46:27;6.85;;;2.75;;
17953;SDS011;9102;53.548;9.926;2023-06-14T11:48:54;13.90;;;3.17;;
17953;SDS011;9102;53.548;9.926;2023-06-14T11:51:20;7.68;;;2.60;;
17953;SDS011;9102;53.548;9.926;2023-06-14T11:53:49;7.13;;;2.70;;
17953;SDS011;9102;53.548;9.926;2023-06-14T11:56:16;5.10;;;2.33;;
17953;SDS011;9102;53.548;9.926;2023-06-14T11:58:44;8.43;;;2.67;;
17953;SDS011;9102;53.548;9.926;2023-06-14T12:01:14;9.45;;;2.40;;
17953;SDS011;9102;53.548;9.926;2023-06-14T12:03:46;7.90;;;2.47;;
17953;SDS011;9102;53.548;9.926;2023-06-14T12:06:14;7.72;;;3.10;;
17953;SDS011;9102;53.548;9.926;2023-06-14T12:08:43;7.80;;;3.10;;
17953;SDS011;9102;53.548;9.926;2023-06-14T12:11:12;6.35;;;2.75;;
17953;SDS011;9102;53.548;9.926;2023-06-14T12:13:40;6.90;;;2.70;;
17953;SDS011;9102;53.548;9.926;2023-06-14T12:16:07;4.90;;;2.70;;
17953;SDS011;9102;53.548;9.926;2023-06-14T12:18:35;10.60;;;2.60;;
17953;SDS011;9102;53.548;9.926;2023-06-14T12:21:03;6.18;;;2.63;;
17953;SDS011;9102;53.548;9.926;2023-06-14T12:23:44;7.95;;;2.90;;
17953;SDS011;9102;53.548;9.926;2023-06-14T12:26:16;7.07;;;2.45;;
17953;SDS011;9102;53.548;9.926;2023-06-14T12:28:44;3.50;;;2.35;;
17953;SDS011;9102;53.548;9.926;2023-06-14T12:31:12;6.22;;;2.75;;
17953;SDS011;9102;53.548;9.926;2023-06-14T12:33:40;4.53;;;2.35;;
17953;SDS011;9102;53.548;9.926;2023-06-14T12:36:08;7.55;;;2.90;;
17953;SDS011;9102;53.548;9.926;2023-06-14T12:38:35;5.28;;;2.50;;
17953;SDS011;9102;53.548;9.926;2023-06-14T12:41:03;7.57;;;3.47;;
17953;SDS011;9102;53.548;9.926;2023-06-14T12:43:31;6.25;;;3.22;;
17953;SDS011;9102;53.548;9.926;2023-06-14T12:45:58;4.65;;;2.35;;
17953;SDS011;9102;53.548;9.926;2023-06-14T12:48:25;6.68;;;2.40;;
17953;SDS011;9102;53.548;9.926;2023-06-14T12:50:52;6.13;;;2.83;;
17953;SDS011;9102;53.548;9.926;2023-06-14T12:53:19;6.00;;;2.58;;
17953;SDS011;9102;53.548;9.926;2023-06-14T12:55:46;4.68;;;2.70;;
17953;SDS011;9102;53.548;9.926;2023-06-14T12:58:13;7.82;;;3.10;;
17953;SDS011;9102;53.548;9.926;2023-06-14T13:00:43;4.30;;;2.38;;
17953;SDS011;9102;53.548;9.926;2023-06-14T13:03:10;5.90;;;2.90;;
17953;SDS011;9102;53.548;9.926;2023-06-14T13:05:37;5.28;;;2.97;;
17953;SDS011;9102;53.548;9.926;2023-06-14T13:08:06;6.32;;;2.65;;
17953;SDS011;9102;53.548;9.926;2023-06-14T13:10:33;9.30;;;2.80;;
17953;SDS011;9102;53.548;9.926;2023-06-14T13:13:00;4.63;;;2.70;;
17953;SDS011;9102;53.548;9.926;2023-06-14T13:15:27;4.05;;;2.50;;
17953;SDS011;9102;53.548;9.926;2023-06-14T13:17:56;6.22;;;2.30;;
17953;SDS011;9102;53.548;9.926;2023-06-14T13:20:23;4.35;;;2.67;;
17953;SDS011;9102;53.548;9.926;2023-06-14T13:22:49;7.93;;;3.05;;
17953;SDS011;9102;53.548;9.926;2023-06-14T13:25:16;7.75;;;2.65;;
17953;SDS011;9102;53.548;9.926;2023-06-14T13:27:43;8.07;;;2.70;;
17953;SDS011;9102;53.548;9.926;2023-06-14T13:30:11;8.63;;;2.67;;
17953;SDS011;9102;53.548;9.926;2023-06-14T13:32:38;11.85;;;2.80;;
17953;SDS011;9102;53.548;9.926;2023-06-14T13:35:07;7.97;;;2.83;;
17953;SDS011;9102;53.548;9.926;2023-06-14T13:37:34;6.63;;;2.63;;
17953;SDS011;9102;53.548;9.926;2023-06-14T13:40:01;4.53;;;2.20;;
17953;SDS011;9102;53.548;9.926;2023-06-14T13:42:28;6.45;;;2.45;;
17953;SDS011;9102;53.548;9.926;2023-06-14T13:44:56;5.63;;;2.50;;
17953;SDS011;9102;53.548;9.926;2023-06-14T13:47:24;6.63;;;2.88;;
17953;SDS011;9102;53.548;9.926;2023-06-14T13:49:51;9.40;;;2.55;;
17953;SDS011;9102;53.548;9.926;2023-06-14T13:52:19;5.43;;;3.55;;
17953;SDS011;9102;53.548;9.926;2023-06-14T13:54:46;4.45;;;2.72;;
17953;SDS011;9102;53.548;9.926;2023-06-14T13:57:13;5.72;;;2.13;;
17953;SDS011;9102;53.548;9.926;2023-06-14T13:59:40;3.70;;;1.90;;
17953;SDS011;9102;53.548;9.926;2023-06-14T14:02:09;3.95;;;2.33;;
17953;SDS011;9102;53.548;9.926;2023-06-14T14:04:36;5.13;;;2.80;;
17953;SDS011;9102;53.548;9.926;2023-06-14T14:07:04;5.85;;;2.40;;
17953;SDS011;9102;53.548;9.926;2023-06-14T14:09:33;5.38;;;2.50;;
17953;SDS011;9102;53.548;9.926;2023-06-14T14:12:02;4.07;;;2.67;;
17953;SDS011;9102;53.548;9.926;2023-06-14T14:14:30;5.10;;;2.60;;
17953;SDS011;9102;53.548;9.926;2023-06-14T14:16:58;4.95;;;2.72;;
17953;SDS011;9102;53.548;9.926;2023-06-14T14:19:25;7.07;;;2.40;;
17953;SDS011;9102;53.548;9.926;2023-06-14T14:21:51;7.28;;;2.50;;
17953;SDS011;9102;53.548;9.926;2023-06-14T14:24:19;4.97;;;2.67;;
17953;SDS011;9102;53.548;9.926;2023-06-14T14:26:47;7.80;;;2.60;;
17953;SDS011;9102;53.548;9.926;2023-06-14T14:29:14;4.45;;;2.78;;
17953;SDS011;9102;53.548;9.926;2023-06-14T14:31:42;4.35;;;2.47;;
17953;SDS011;9102;53.548;9.926;2023-06-14T14:34:08;5.20;;;2.80;;
17953;SDS011;9102;53.548;9.926;2023-06-14T14:36:35;4.15;;;2.53;;
17953;SDS011;9102;53.548;9.926;2023-06-14T14:39:02;7.07;;;2.42;;
17953;SDS011;9102;53.548;9.926;2023-06-14T14:41:29;9.93;;;2.50;;
17953;SDS011;9102;53.548;9.926;2023-06-14T14:43:58;6.40;;;2.40;;
17953;SDS011;9102;53.548;9.926;2023-06-14T14:46:25;7.15;;;2.05;;
17953;SDS011;9102;53.548;9.926;2023-06-14T14:48:53;6.80;;;2.33;;
17953;SDS011;9102;53.548;9.926;2023-06-14T14:51:20;6.38;;;2.58;;
17953;SDS011;9102;53.548;9.926;2023-06-14T14:53:47;6.43;;;2.60;;
17953;SDS011;9102;53.548;9.926;2023-06-14T14:56:13;10.10;;;2.60;;
17953;SDS011;9102;53.548;9.926;2023-06-14T14:58:40;10.40;;;2.58;;
17953;SDS011;9102;53.548;9.926;2023-06-14T15:01:08;8.65;;;2.80;;
17953;SDS011;9102;53.548;9.926;2023-06-14T15:03:35;13.48;;;2.67;;
17953;SDS011;9102;53.548;9.926;2023-06-14T15:06:02;6.10;;;2.33;;
17953;SDS011;9102;53.548;9.926;2023-06-14T15:08:30;11.15;;;3.03;;
17953;SDS011;9102;53.548;9.926;2023-06-14T15:10:56;9.38;;;2.58;;
17953;SDS011;9102;53.548;9.926;2023-06-14T15:13:23;6.47;;;2.47;;
17953;SDS011;9102;53.548;9.926;2023-06-14T15:15:50;13.85;;;2.88;;